createdAt,value
2018-06-03T00:00:33.935Z,82.62
2018-06-03T00:03:02.571Z,81.95
2018-06-03T00:05:31.295Z,82.35
2018-06-03T00:07:59.936Z,81.36
2018-06-03T00:10:28.637Z,80.39
2018-06-03T00:12:57.302Z,79.15
2018-06-03T00:15:25.919Z,79.15
2018-06-03T00:17:54.559Z,79.53
2018-06-03T00:20:35.994Z,79.62
2018-06-03T00:23:04.665Z,78.98
2018-06-03T00:25:33.258Z,78.24
2018-06-03T00:28:01.862Z,77.87
2018-06-03T00:30:30.506Z,78.09
2018-06-03T00:32:59.155Z,77.16
2018-06-03T00:35:28.317Z,76.42
2018-06-03T00:37:56.987Z,76.14
2018-06-03T00:40:25.675Z,76.05
2018-06-03T00:42:54.410Z,75.81
2018-06-03T00:45:23.063Z,75.65
2018-06-03T00:47:51.703Z,75.97
2018-06-03T00:50:20.330Z,75.50
2018-06-03T00:52:49.035Z,75.89
2018-06-03T00:55:17.648Z,75.97
2018-06-03T00:57:46.270Z,77.04
2018-06-03T01:00:14.959Z,76.33
2018-06-03T01:02:43.581Z,77.48
2018-06-03T01:05:12.182Z,78.14
2018-06-03T01:07:40.937Z,79.00
2018-06-03T01:10:09.608Z,79.08
2018-06-03T01:12:38.221Z,79.64
2018-06-03T01:15:06.990Z,79.75
2018-06-03T01:17:35.618Z,81.17
2018-06-03T01:20:04.285Z,81.51
2018-06-03T01:22:32.947Z,81.55
2018-06-03T01:25:01.613Z,81.91
2018-06-03T01:27:30.218Z,83.07
2018-06-03T01:29:58.908Z,81.85
2018-06-03T01:32:27.575Z,81.90
2018-06-03T01:34:56.401Z,81.57
2018-06-03T01:37:25.038Z,82.13
2018-06-03T01:39:53.778Z,83.01
2018-06-03T01:42:22.801Z,82.93
2018-06-03T01:44:51.490Z,82.64
2018-06-03T01:47:20.121Z,83.01
2018-06-03T01:49:48.774Z,83.11
2018-06-03T01:52:17.434Z,82.98
2018-06-03T01:54:46.082Z,83.39
2018-06-03T01:57:14.734Z,83.89
2018-06-03T01:59:43.491Z,84.35
2018-06-03T02:02:12.134Z,83.64
2018-06-03T02:04:40.798Z,83.92
2018-06-03T02:07:09.437Z,84.29
2018-06-03T02:09:38.071Z,83.97
2018-06-03T02:12:06.770Z,83.75
2018-06-03T02:14:35.401Z,82.60
2018-06-03T02:17:04.140Z,83.21
2018-06-03T02:19:32.773Z,83.50
2018-06-03T02:22:01.363Z,84.61
2018-06-03T02:24:29.952Z,84.52
2018-06-03T02:26:58.668Z,84.57
2018-06-03T02:29:27.365Z,84.73
2018-06-03T02:31:56.463Z,83.68
2018-06-03T02:34:39.818Z,83.35
2018-06-03T02:37:08.684Z,84.50
2018-06-03T02:39:37.408Z,84.94
2018-06-03T02:42:06.081Z,86.01
2018-06-03T02:44:34.849Z,84.68
2018-06-03T02:47:03.567Z,83.76
2018-06-03T02:49:32.245Z,82.65
2018-06-03T02:52:00.969Z,82.79
2018-06-03T02:54:29.684Z,81.88
2018-06-03T02:56:58.337Z,82.68
2018-06-03T02:59:26.966Z,81.58
2018-06-03T03:01:55.634Z,81.65
2018-06-03T03:04:24.331Z,80.38
2018-06-03T03:06:52.964Z,80.71
2018-06-03T03:09:21.647Z,80.64
2018-06-03T03:11:50.285Z,81.29
2018-06-03T03:14:18.988Z,80.69
2018-06-03T03:16:47.618Z,80.75
2018-06-03T03:19:16.350Z,80.81
2018-06-03T03:21:44.997Z,81.96
2018-06-03T03:24:13.677Z,82.47
2018-06-03T03:26:42.290Z,82.37
2018-06-03T03:29:10.929Z,82.55
2018-06-03T03:31:39.576Z,82.73
2018-06-03T03:34:08.235Z,81.79
2018-06-03T03:36:36.943Z,81.89
2018-06-03T03:39:06.898Z,80.25
2018-06-03T03:41:35.554Z,79.85
2018-06-03T03:44:04.243Z,79.04
2018-06-03T03:46:32.855Z,78.63
2018-06-03T03:49:01.501Z,77.97
2018-06-03T03:51:30.155Z,78.60
2018-06-03T03:53:58.799Z,78.72
2018-06-03T03:56:27.448Z,78.72
2018-06-03T03:58:56.060Z,78.55
2018-06-03T04:01:24.703Z,77.66
2018-06-03T04:03:53.335Z,79.05
2018-06-03T04:06:21.971Z,79.29
2018-06-03T04:08:50.678Z,78.53
2018-06-03T04:11:19.341Z,77.53
2018-06-03T04:13:48.010Z,77.40
2018-06-03T04:16:16.652Z,77.82
2018-06-03T04:18:45.290Z,78.68
2018-06-03T04:21:14.034Z,78.56
2018-06-03T04:23:42.640Z,77.64
2018-06-03T04:26:11.379Z,77.42
2018-06-03T04:28:40.012Z,76.80
2018-06-03T04:31:08.676Z,75.32
2018-06-03T04:33:37.336Z,75.26
2018-06-03T04:36:06.011Z,75.08
2018-06-03T04:38:34.647Z,73.93
2018-06-03T04:41:03.387Z,73.92
2018-06-03T04:43:32.051Z,74.50
2018-06-03T04:46:00.773Z,73.96
2018-06-03T04:48:29.474Z,73.41
2018-06-03T04:50:58.106Z,71.82
2018-06-03T04:53:26.778Z,71.34
2018-06-03T04:55:55.401Z,71.48
2018-06-03T04:58:24.040Z,71.40
2018-06-03T05:00:52.717Z,72.20
2018-06-03T05:03:21.344Z,70.92
2018-06-03T05:05:49.973Z,70.46
2018-06-03T05:08:18.654Z,70.50
2018-06-03T05:10:47.312Z,68.99
2018-06-03T05:13:15.991Z,68.84
2018-06-03T05:15:44.656Z,67.28
2018-06-03T05:18:13.334Z,66.27
2018-06-03T05:20:42.011Z,65.07
2018-06-03T05:23:10.711Z,64.96
2018-06-03T05:25:39.464Z,63.53
2018-06-03T05:28:08.134Z,62.19
2018-06-03T05:30:36.856Z,62.10
2018-06-03T05:33:05.555Z,61.39
2018-06-03T05:35:34.318Z,60.58
2018-06-03T05:38:03.694Z,59.78
2018-06-03T05:40:32.375Z,59.27
2018-06-03T05:43:01.041Z,58.86
2018-06-03T05:45:29.674Z,58.26
2018-06-03T05:47:58.330Z,57.63
2018-06-03T05:50:27.104Z,57.46
2018-06-03T05:52:55.786Z,56.33
2018-06-03T05:55:25.354Z,56.28
2018-06-03T05:57:53.974Z,53.89
2018-06-03T06:00:22.625Z,53.35
2018-06-03T06:02:51.253Z,52.60
2018-06-03T06:05:19.949Z,51.35
2018-06-03T06:07:48.574Z,53.16
2018-06-03T06:10:17.224Z,52.31
2018-06-03T06:12:45.853Z,52.23
2018-06-03T06:15:14.603Z,50.90
2018-06-03T06:17:43.325Z,50.88
2018-06-03T06:20:12.284Z,49.31
2018-06-03T06:22:40.899Z,48.90
2018-06-03T06:25:09.555Z,51.79
2018-06-03T06:27:38.246Z,52.19
2018-06-03T06:30:06.950Z,51.87
2018-06-03T06:32:35.619Z,51.40
2018-06-03T06:35:04.293Z,51.80
2018-06-03T06:37:32.958Z,52.30
2018-06-03T06:40:01.601Z,51.18
2018-06-03T06:42:30.243Z,50.39
2018-06-03T06:44:58.935Z,49.93
2018-06-03T06:47:27.551Z,51.02
2018-06-03T06:49:56.179Z,52.05
2018-06-03T06:52:24.818Z,49.32
2018-06-03T06:54:53.504Z,48.68
2018-06-03T06:57:22.166Z,47.14
2018-06-03T06:59:51.056Z,45.88
2018-06-03T07:02:19.726Z,47.01
2018-06-03T07:04:52.249Z,48.07
2018-06-03T07:07:21.065Z,46.87
2018-06-03T07:09:49.738Z,45.48
2018-06-03T07:12:18.439Z,46.67
2018-06-03T07:14:47.160Z,45.91
2018-06-03T07:17:15.870Z,45.29
2018-06-03T07:19:44.643Z,45.25
2018-06-03T07:22:13.270Z,44.90
2018-06-03T07:24:42.223Z,44.14
2018-06-03T07:27:10.835Z,45.02
2018-06-03T07:29:39.534Z,46.05
2018-06-03T07:32:08.208Z,43.88
2018-06-03T07:34:36.859Z,43.03
2018-06-03T07:37:05.548Z,42.40
2018-06-03T07:39:34.260Z,42.87
2018-06-03T07:42:03.065Z,41.21
2018-06-03T07:44:32.375Z,41.01
2018-06-03T07:47:01.293Z,42.23
2018-06-03T07:49:30.012Z,41.47
2018-06-03T07:51:58.692Z,40.35
2018-06-03T07:54:27.361Z,39.27
2018-06-03T07:56:56.056Z,39.63
2018-06-03T07:59:25.065Z,39.02
2018-06-03T08:01:53.728Z,39.32
2018-06-03T08:04:22.397Z,39.55
2018-06-03T08:06:51.057Z,36.65
2018-06-03T08:09:19.710Z,35.66
2018-06-03T08:11:48.752Z,34.26
2018-06-03T08:14:17.495Z,36.90
2018-06-03T08:16:46.170Z,36.37
2018-06-03T08:19:15.155Z,35.46
2018-06-03T08:21:43.957Z,34.00
2018-06-03T08:24:13.569Z,34.24
2018-06-03T08:26:44.462Z,34.65
2018-06-03T08:29:13.258Z,36.43
2018-06-03T08:31:42.277Z,35.01
2018-06-03T08:34:10.929Z,34.69
2018-06-03T08:36:39.603Z,34.38
2018-06-03T08:39:08.379Z,34.98
2018-06-03T08:41:37.238Z,34.02
2018-06-03T08:44:06.321Z,34.40
2018-06-03T08:46:35.291Z,33.21
2018-06-03T08:49:03.923Z,33.25
2018-06-03T08:51:32.757Z,32.56
2018-06-03T08:54:02.455Z,32.42
2018-06-03T08:56:31.138Z,33.11
2018-06-03T08:59:00.202Z,34.03
2018-06-03T09:01:29.596Z,33.47
2018-06-03T09:03:58.314Z,33.35
2018-06-03T09:06:27.383Z,34.46
2018-06-03T09:08:56.868Z,34.65
2018-06-03T09:11:25.946Z,35.00
2018-06-03T09:13:54.635Z,34.17
2018-06-03T09:16:23.986Z,34.78
2018-06-03T09:18:52.814Z,33.39
2018-06-03T09:21:21.493Z,32.71
2018-06-03T09:23:50.198Z,30.99
2018-06-03T09:26:19.264Z,30.56
2018-06-03T09:28:47.967Z,30.62
2018-06-03T09:31:16.609Z,30.77
2018-06-03T09:33:45.291Z,30.69
2018-06-03T09:36:13.890Z,31.60
2018-06-03T09:38:42.567Z,31.42
2018-06-03T09:41:11.209Z,31.78
2018-06-03T09:43:39.906Z,30.36
2018-06-03T09:46:08.583Z,30.82
2018-06-03T09:48:37.195Z,31.83
2018-06-03T09:51:05.834Z,30.42
2018-06-03T09:53:34.675Z,30.52
2018-06-03T09:56:03.391Z,31.46
2018-06-03T09:58:51.377Z,30.84
2018-06-03T10:01:20.081Z,30.54
2018-06-03T10:03:48.786Z,31.07
2018-06-03T10:06:17.531Z,29.61
2018-06-03T10:08:46.242Z,28.79
2018-06-03T10:11:14.960Z,29.68
2018-06-03T10:13:43.604Z,29.83
2018-06-03T10:16:12.361Z,28.94
2018-06-03T10:19:27.156Z,28.58
2018-06-03T10:21:55.963Z,32.07
2018-06-03T10:24:24.602Z,33.77
2018-06-03T10:26:53.402Z,32.09
2018-06-03T10:29:22.096Z,31.33
2018-06-03T10:31:50.722Z,32.01
2018-06-03T10:34:19.419Z,30.50
2018-06-03T10:36:48.079Z,33.50
2018-06-03T10:39:17.967Z,35.34
2018-06-03T10:41:46.656Z,35.31
2018-06-03T10:44:15.279Z,32.20
2018-06-03T10:46:44.302Z,31.77
2018-06-03T10:49:16.506Z,29.19
2018-06-03T10:51:45.145Z,29.92
2018-06-03T10:54:15.240Z,29.32
2018-06-03T10:56:45.660Z,29.12
2018-06-03T10:59:14.371Z,31.71
2018-06-03T11:01:43.027Z,32.49
2018-06-03T11:04:11.678Z,33.01
2018-06-03T11:06:40.335Z,34.21
2018-06-03T11:09:09.062Z,33.74
2018-06-03T11:11:37.768Z,38.46
2018-06-03T11:14:06.507Z,43.87
2018-06-03T11:16:35.198Z,45.80
2018-06-03T11:19:03.879Z,48.91
2018-06-03T11:21:32.554Z,50.25
2018-06-03T11:24:01.255Z,50.51
2018-06-03T11:26:30.003Z,53.18
2018-06-03T11:28:58.621Z,53.15
2018-06-03T11:31:27.327Z,54.26
2018-06-03T11:33:55.965Z,55.41
2018-06-03T11:36:24.637Z,57.17
2018-06-03T11:38:53.522Z,57.44
2018-06-03T11:41:23.444Z,61.51
2018-06-03T11:43:52.066Z,62.50
2018-06-03T11:46:20.741Z,62.17
2018-06-03T11:48:49.379Z,63.07
2018-06-03T11:51:18.034Z,61.07
2018-06-03T11:53:46.737Z,58.51
2018-06-03T11:56:15.338Z,57.36
2018-06-03T11:58:59.759Z,58.74
2018-06-03T12:01:28.711Z,57.76
2018-06-03T12:03:57.398Z,57.56
2018-06-03T12:06:26.013Z,57.31
2018-06-03T12:08:54.667Z,62.06
2018-06-03T12:11:23.283Z,62.61
2018-06-03T12:13:51.950Z,62.81
2018-06-03T12:16:20.866Z,60.58
2018-06-03T12:18:49.854Z,61.14
2018-06-03T12:21:18.480Z,60.02
2018-06-03T12:23:47.213Z,64.31
2018-06-03T12:26:15.871Z,66.41
2018-06-03T12:28:44.554Z,68.88
2018-06-03T12:31:13.168Z,68.70
2018-06-03T12:33:41.825Z,66.39
2018-06-03T12:36:10.491Z,64.29
2018-06-03T12:38:39.166Z,63.34
2018-06-03T12:41:07.795Z,60.21
2018-06-03T12:43:36.449Z,60.65
2018-06-03T12:46:06.365Z,58.27
2018-06-03T12:48:34.999Z,56.21
2018-06-03T12:51:03.660Z,55.33
2018-06-03T12:53:32.387Z,54.35
2018-06-03T12:56:01.011Z,52.11
2018-06-03T12:58:29.773Z,50.07
2018-06-03T13:00:58.459Z,50.56
2018-06-03T13:03:27.158Z,48.46
2018-06-03T13:05:55.787Z,49.16
2018-06-03T13:08:25.352Z,47.10
2018-06-03T13:10:54.006Z,48.03
2018-06-03T13:13:23.660Z,46.48
2018-06-03T13:15:52.321Z,45.56
2018-06-03T13:18:21.006Z,43.24
2018-06-03T13:20:49.659Z,42.87
2018-06-03T13:23:18.377Z,42.27
2018-06-03T13:25:47.016Z,44.05
2018-06-03T13:28:15.679Z,44.09
2018-06-03T13:30:44.328Z,44.42
2018-06-03T13:33:13.079Z,44.45
2018-06-03T13:35:41.912Z,45.63
2018-06-03T13:38:10.610Z,46.66
2018-06-03T13:40:39.297Z,48.44
2018-06-03T13:43:07.931Z,49.59
2018-06-03T13:45:36.639Z,50.73
2018-06-03T13:48:05.359Z,50.32
2018-06-03T13:50:34.042Z,50.42
2018-06-03T13:53:02.736Z,50.31
2018-06-03T13:55:31.441Z,49.64
2018-06-03T13:58:00.070Z,45.93
2018-06-03T14:00:28.727Z,46.86
2018-06-03T14:02:57.336Z,45.68
2018-06-03T14:05:25.981Z,44.70
2018-06-03T14:07:54.590Z,43.88
2018-06-03T14:10:23.312Z,43.18
2018-06-03T14:12:51.938Z,42.10
2018-06-03T14:15:20.575Z,42.42
2018-06-03T14:17:49.264Z,42.03
2018-06-03T14:20:17.889Z,41.86
2018-06-03T14:22:46.543Z,41.61
2018-06-03T14:25:15.206Z,41.59
2018-06-03T14:27:43.827Z,45.63
2018-06-03T14:30:12.600Z,48.68
2018-06-03T14:32:41.263Z,52.74
2018-06-03T14:35:09.846Z,54.50
2018-06-03T14:37:38.486Z,60.17
2018-06-03T14:40:07.116Z,64.45
2018-06-03T14:42:35.735Z,65.94
2018-06-03T14:45:04.457Z,67.38
2018-06-03T14:47:33.074Z,67.98
2018-06-03T14:50:01.698Z,68.67
2018-06-03T14:52:30.303Z,71.09
2018-06-03T14:54:59.194Z,69.48
2018-06-03T14:57:27.818Z,68.27
2018-06-03T14:59:56.446Z,67.88
2018-06-03T15:02:25.109Z,69.21
2018-06-03T15:04:53.747Z,68.44
2018-06-03T15:07:22.376Z,68.24
2018-06-03T15:09:50.946Z,66.50
2018-06-03T15:12:19.571Z,66.99
2018-06-03T15:14:48.220Z,64.77
2018-06-03T15:17:16.902Z,65.64
2018-06-03T15:19:45.528Z,65.52
2018-06-03T15:22:14.200Z,64.72
2018-06-03T15:24:44.108Z,66.18
2018-06-03T15:27:12.728Z,64.62
2018-06-03T15:29:41.366Z,63.79
2018-06-03T15:32:10.032Z,62.98
2018-06-03T15:34:38.687Z,62.68
2018-06-03T15:37:07.339Z,62.56
2018-06-03T15:39:35.990Z,62.16
2018-06-03T15:42:05.019Z,62.51
2018-06-03T15:44:36.435Z,62.62
2018-06-03T15:47:05.167Z,61.93
2018-06-03T15:49:37.213Z,61.72
2018-06-03T15:52:05.977Z,62.31
2018-06-03T15:54:34.618Z,62.91
2018-06-03T15:57:03.321Z,60.01
2018-06-03T15:59:32.053Z,58.56
2018-06-03T16:02:00.687Z,58.58
2018-06-03T16:04:29.499Z,57.76
2018-06-03T16:06:58.138Z,58.67
2018-06-03T16:09:26.774Z,58.93
2018-06-03T16:11:55.434Z,58.22
2018-06-03T16:14:24.060Z,58.06
2018-06-03T16:16:52.715Z,57.94
2018-06-03T16:19:21.671Z,57.91
2018-06-03T16:21:50.372Z,58.04
2018-06-03T16:24:19.723Z,57.54
2018-06-03T16:26:48.342Z,57.83
2018-06-03T16:29:17.037Z,57.58
2018-06-03T16:31:46.121Z,57.73
2018-06-03T16:34:15.073Z,58.30
2018-06-03T16:36:43.841Z,58.81
2018-06-03T16:39:12.603Z,59.91
2018-06-03T16:41:41.256Z,60.91
2018-06-03T16:44:10.070Z,61.04
2018-06-03T16:46:38.763Z,61.30
2018-06-03T16:49:07.403Z,62.35
2018-06-03T16:51:35.996Z,62.32
2018-06-03T16:54:04.733Z,62.51
2018-06-03T16:56:33.700Z,62.12
2018-06-03T16:59:02.336Z,62.67
2018-06-03T17:01:31.016Z,63.18
2018-06-03T17:03:59.746Z,62.90
2018-06-03T17:06:28.423Z,63.36
2018-06-03T17:08:57.054Z,64.31
2018-06-03T17:11:25.815Z,64.33
2018-06-03T17:13:54.743Z,64.61
2018-06-03T17:16:24.948Z,64.62
2018-06-03T17:18:55.528Z,64.28
2018-06-03T17:21:24.918Z,64.56
2018-06-03T17:23:54.935Z,65.54
2018-06-03T17:26:24.011Z,64.94
2018-06-03T17:28:54.137Z,65.93
2018-06-03T17:31:22.939Z,65.99
2018-06-03T17:33:51.704Z,66.63
2018-06-03T17:36:20.501Z,67.17
2018-06-03T17:38:49.275Z,66.65
2018-06-03T17:41:19.141Z,67.47
2018-06-03T17:43:48.078Z,67.98
2018-06-03T17:46:16.770Z,67.44
2018-06-03T17:48:45.488Z,68.39
2018-06-03T17:51:15.046Z,67.68
2018-06-03T17:53:44.334Z,68.79
2018-06-03T17:56:13.309Z,67.99
2018-06-03T17:58:42.312Z,68.05
2018-06-03T18:01:11.319Z,68.48
2018-06-03T18:03:40.288Z,67.71
2018-06-03T18:06:09.351Z,68.33
2018-06-03T18:08:38.005Z,67.94
2018-06-03T18:11:07.459Z,68.16
2018-06-03T18:13:36.746Z,67.80
2018-06-03T18:16:06.012Z,67.66
2018-06-03T18:18:34.728Z,68.76
2018-06-03T18:21:03.369Z,68.65
2018-06-03T18:23:32.004Z,68.15
2018-06-03T18:26:00.620Z,68.42
2018-06-03T18:28:29.252Z,68.83
2018-06-03T18:30:57.900Z,68.57
2018-06-03T18:33:26.516Z,68.31
2018-06-03T18:35:55.187Z,68.46
2018-06-03T18:38:24.754Z,67.84
2018-06-03T18:40:53.377Z,67.91
2018-06-03T18:43:22.046Z,68.14
2018-06-03T18:45:50.645Z,68.37
2018-06-03T18:48:19.580Z,68.17
2018-06-03T18:50:48.211Z,68.39
2018-06-03T18:53:16.877Z,69.21
2018-06-03T18:55:46.486Z,69.23
2018-06-03T18:58:15.290Z,68.76
2018-06-03T19:00:43.913Z,68.73
2018-06-03T19:03:12.543Z,69.40
2018-06-03T19:05:41.168Z,70.69
2018-06-03T19:08:09.798Z,70.54
2018-06-03T19:10:38.466Z,70.53
2018-06-03T19:13:07.176Z,71.96
2018-06-03T19:15:44.437Z,71.92
2018-06-03T19:18:13.471Z,71.60
2018-06-03T19:20:42.120Z,72.51
2018-06-03T19:23:10.732Z,71.42
2018-06-03T19:25:39.456Z,71.62
2018-06-03T19:28:08.067Z,73.07
2018-06-03T19:30:37.324Z,72.75
2018-06-03T19:33:06.051Z,72.11
2018-06-03T19:35:34.796Z,72.24
2018-06-03T19:38:03.456Z,72.09
2018-06-03T19:40:32.111Z,72.73
2018-06-03T19:43:00.831Z,72.92
2018-06-03T19:45:29.480Z,72.06
2018-06-03T19:47:58.127Z,72.18
2018-06-03T19:50:26.899Z,70.51
2018-06-03T19:52:55.584Z,70.42
2018-06-03T19:55:24.727Z,69.06
2018-06-03T19:57:53.362Z,69.22
2018-06-03T20:00:25.924Z,67.38
2018-06-03T20:02:54.673Z,67.34
2018-06-03T20:05:23.295Z,66.24
2018-06-03T20:07:51.923Z,67.25
2018-06-03T20:10:20.678Z,66.73
2018-06-03T20:12:49.275Z,66.34
2018-06-03T20:15:18.160Z,67.36
2018-06-03T20:17:47.127Z,67.50
2018-06-03T20:20:15.823Z,67.00
2018-06-03T20:22:44.439Z,68.04
2018-06-03T20:25:13.081Z,67.53
2018-06-03T20:27:41.945Z,68.37
2018-06-03T20:30:10.664Z,68.02
2018-06-03T20:32:39.655Z,68.65
2018-06-03T20:35:08.580Z,68.51
2018-06-03T20:37:37.245Z,67.93
2018-06-03T20:40:05.924Z,68.34
2018-06-03T20:42:34.618Z,68.26
2018-06-03T20:45:03.229Z,67.93
2018-06-03T20:47:32.134Z,67.86
2018-06-03T20:50:01.318Z,67.99
2018-06-03T20:52:29.986Z,67.89
2018-06-03T20:54:58.679Z,68.88
2018-06-03T20:57:27.334Z,67.99
2018-06-03T20:59:56.004Z,67.61
2018-06-03T21:02:24.883Z,68.01
2018-06-03T21:04:53.521Z,68.12
2018-06-03T21:07:22.151Z,67.88
2018-06-03T21:09:50.842Z,67.86
2018-06-03T21:12:19.488Z,68.02
2018-06-03T21:14:48.132Z,68.31
2018-06-03T21:17:17.281Z,67.60
2018-06-03T21:19:45.917Z,68.34
2018-06-03T21:22:14.556Z,67.62
2018-06-03T21:24:43.209Z,67.88
2018-06-03T21:27:11.872Z,67.54
2018-06-03T21:29:40.821Z,67.82
2018-06-03T21:32:09.561Z,67.49
2018-06-03T21:34:38.218Z,67.09
2018-06-03T21:37:06.862Z,66.85
2018-06-03T21:39:35.565Z,67.40
2018-06-03T21:42:04.267Z,66.20
2018-06-03T21:44:33.004Z,67.08
2018-06-03T21:47:01.672Z,66.36
2018-06-03T21:49:30.334Z,66.06
2018-06-03T21:51:59.052Z,65.47
2018-06-03T21:54:27.777Z,65.70
2018-06-03T21:56:56.463Z,65.27
2018-06-03T21:59:25.100Z,65.48
2018-06-03T22:01:53.834Z,65.50
2018-06-03T22:04:22.526Z,66.46
2018-06-03T22:06:51.175Z,65.72
2018-06-03T22:09:19.887Z,65.94
2018-06-03T22:11:48.983Z,66.09
2018-06-03T22:14:17.592Z,65.97
2018-06-03T22:16:46.226Z,66.14
2018-06-03T22:19:15.251Z,66.55
2018-06-03T22:21:43.953Z,66.96
2018-06-03T22:24:12.623Z,66.30
2018-06-03T22:26:41.228Z,65.83
2018-06-03T22:29:09.907Z,66.17
2018-06-03T22:31:38.531Z,66.86
2018-06-03T22:34:07.150Z,68.00
2018-06-03T22:36:35.786Z,67.12
2018-06-03T22:39:06.420Z,66.81
2018-06-03T22:41:35.042Z,67.34
2018-06-03T22:44:03.734Z,67.95
2018-06-03T22:46:32.327Z,67.62
2018-06-03T22:49:00.995Z,67.96
2018-06-03T22:51:29.665Z,68.20
2018-06-03T22:53:59.558Z,67.34
2018-06-03T22:56:39.878Z,67.54
2018-06-03T22:59:12.060Z,67.44
2018-06-03T23:01:46.914Z,67.63
2018-06-03T23:04:20.543Z,67.00
2018-06-03T23:06:52.706Z,67.19
2018-06-03T23:09:21.311Z,66.29
2018-06-03T23:11:50.303Z,66.61
2018-06-03T23:14:20.314Z,67.58
2018-06-03T23:16:49.013Z,67.06
2018-06-03T23:19:17.947Z,67.12
2018-06-03T23:21:46.570Z,67.05
2018-06-03T23:24:15.301Z,66.37
2018-06-03T23:26:43.959Z,66.30
2018-06-03T23:29:12.669Z,66.78
2018-06-03T23:31:41.285Z,65.35
2018-06-03T23:34:09.940Z,67.62
2018-06-03T23:36:38.578Z,66.62
2018-06-03T23:39:07.874Z,67.22
2018-06-03T23:41:36.494Z,66.43
2018-06-03T23:44:05.179Z,67.49
2018-06-03T23:46:33.783Z,68.53
2018-06-03T23:49:02.511Z,68.15
2018-06-03T23:51:31.952Z,69.25
2018-06-03T23:54:00.583Z,69.41
2018-06-03T23:56:29.225Z,69.87
2018-06-03T23:58:57.807Z,68.76
